Time;durP1;ratioP1;P1;durP2;ratioP2;P2;SDS_P1;SDS_P2;PMS_P1;PMS_P2;Temp;Humidity;BMP_temperature;BMP_pressure;BME280_temperature;BME280_humidity;BME280_pressure;Samples;Min_cycle;Max_cycle;Signal;HPM_P1;HPM_P2
2022/11/15 00:01:12;;;;;;;;;;;;;;;;;;7371510;19;1698;-62
2022/11/15 00:03:59;;;;;;;;;;;;;;;;;;7369313;19;770;-60
2022/11/15 00:06:45;;;;;;;;;;;;;;;;;;7371920;19;1579;-61
2022/11/15 00:09:32;;;;;;;;;;;;;;;;;;7368317;19;766;-62
2022/11/15 00:12:19;;;;;;;;;;;;;;;;;;7366774;19;1355;-60
2022/11/15 00:15:06;;;;;;;;;;;;;;;;;;7366891;19;1858;-62
2022/11/15 00:17:52;;;;;;;;;;;;;;;;;;7368000;19;744;-60
2022/11/15 00:20:39;;;;;;;;;;;;;;;;;;7368629;19;890;-61
2022/11/15 00:23:26;;;;;;;;;;;;;;;;;;7368207;19;740;-61
2022/11/15 00:26:13;;;;;;;;;;;;;;;;;;7368573;19;809;-63
2022/11/15 00:28:59;;;;;;;;;;;;;;;;;;7367751;19;809;-63
2022/11/15 00:31:46;;;;;;;;;;;;;;;;;;7366655;19;1283;-61
2022/11/15 00:34:33;;;;;;;;;;;;;;;;;;7366884;19;1834;-63
2022/11/15 00:37:19;;;;;;;;;;;;;;;;;;7369499;19;1569;-62
2022/11/15 00:40:06;;;;;;;;;;;;;;;;;;7367923;19;743;-61
2022/11/15 00:42:53;;;;;;;;;;;;;;;;;;7365420;19;1318;-60
2022/11/15 00:45:40;;;;;;;;;;;;;;;;;;7367686;19;825;-63
2022/11/15 00:48:27;;;;;;;;;;;;;;;;;;7367108;19;786;-61
2022/11/15 00:51:13;;;;;;;;;;;;;;;;;;7366992;19;1318;-62
2022/11/15 00:54:00;;;;;;;;;;;;;;;;;;7369076;19;1846;-61
2022/11/15 00:56:47;;;;;;;;;;;;;;;;;;7367183;19;781;-62
2022/11/15 00:59:34;;;;;;;;;;;;;;;;;;7366344;19;700;-62
2022/11/15 01:02:21;;;;;;;;;;;;;;;;;;7367239;19;1319;-62
2022/11/15 01:05:07;;;;;;;;;;;;;;;;;;7369856;19;1780;-63
2022/11/15 01:07:54;;;;;;;;;;;;;;;;;;7366835;19;934;-61
2022/11/15 01:10:41;;;;;;;;;;;;;;;;;;7367173;19;745;-60
2022/11/15 01:13:28;;;;;;;;;;;;;;;;;;7366787;19;724;-62
2022/11/15 01:16:16;;;;;;;;;;;;;;;;;;7363624;19;1865;-60
2022/11/15 01:19:03;;;;;;;;;;;;;;;;;;7366307;19;743;-61
2022/11/15 01:21:50;;;;;;;;;;;;;;;;;;7365402;19;1381;-62
2022/11/15 01:24:37;;;;;;;;;;;;;;;;;;7366961;19;789;-61
2022/11/15 01:27:23;;;;;;;;;;;;;;;;;;7365170;19;862;-62
2022/11/15 01:30:10;;;;;;;;;;;;;;;;;;7366523;19;718;-62
2022/11/15 01:32:57;;;;;;;;;;;;;;;;;;7365643;19;2253;-62
2022/11/15 01:35:44;;;;;;;;;;;;;;;;;;7363831;19;1854;-62
2022/11/15 01:38:31;;;;;;;;;;;;;;;;;;7364977;19;779;-62
2022/11/15 01:41:17;;;;;;;;;;;;;;;;;;7365420;19;1263;-62
2022/11/15 01:44:04;;;;;;;;;;;;;;;;;;7365842;19;815;-62
2022/11/15 01:46:51;;;;;;;;;;;;;;;;;;7365960;19;775;-62
2022/11/15 01:49:38;;;;;;;;;;;;;;;;;;7364223;19;776;-62
2022/11/15 01:52:25;;;;;;;;;;;;;;;;;;7363291;19;1307;-59
2022/11/15 01:55:12;;;;;;;;;;;;;;;;;;7363464;19;1838;-60
2022/11/15 01:57:58;;;;;;;;;;;;;;;;;;7364793;19;794;-61
2022/11/15 02:00:47;;;;;;;;;;;;;;;;;;7365164;19;741;-61
2022/11/15 02:03:34;;;;;;;;;;;;;;;;;;7369000;19;2072;-59
2022/11/15 02:06:20;;;;;;;;;;;;;;;;;;7369721;19;2068;-63
2022/11/15 02:09:07;;;;;;;;;;;;;;;;;;7372717;19;840;-62
2022/11/15 02:11:54;;;;;;;;;;;;;;;;;;7372889;19;1324;-63
2022/11/15 02:14:41;;;;;;;;;;;;;;;;;;7371429;19;1900;-62
2022/11/15 02:17:27;;;;;;;;;;;;;;;;;;7371451;19;849;-62
2022/11/15 02:20:14;;;;;;;;;;;;;;;;;;7372305;19;1579;-62
2022/11/15 02:23:01;;;;;;;;;;;;;;;;;;7369163;19;1326;-61
2022/11/15 02:25:47;;;;;;;;;;;;;;;;;;7370916;19;724;-62
2022/11/15 02:28:34;;;;;;;;;;;;;;;;;;7371849;19;682;-60
2022/11/15 02:31:21;;;;;;;;;;;;;;;;;;7374408;19;1815;-62
2022/11/15 02:34:08;;;;;;;;;;;;;;;;;;7371767;19;778;-62
2022/11/15 02:36:55;;;;;;;;;;;;;;;;;;7370718;19;740;-63
2022/11/15 02:39:42;;;;;;;;;;;;;;;;;;7370660;19;758;-62
2022/11/15 02:45:28;;;;;;;;;;;;;;;;;;7371068;19;2029;-63
2022/11/15 02:48:14;;;;;;;;;;;;;;;;;;7375598;19;795;-62
2022/11/15 02:51:01;;;;;;;;;;;;;;;;;;7370774;19;1318;-63
2022/11/15 02:53:48;;;;;;;;;;;;;;;;;;7370248;19;863;-63
2022/11/15 02:56:35;;;;;;;;;;;;;;;;;;7368933;19;1879;-61
2022/11/15 02:59:22;;;;;;;;;;;;;;;;;;7369348;19;731;-62
2022/11/15 03:02:08;;;;;;;;;;;;;;;;;;7373952;19;1256;-60
2022/11/15 03:04:55;;;;;;;;;;;;;;;;;;7371530;19;2132;-60
2022/11/15 03:07:42;;;;;;;;;;;;;;;;;;7370414;19;718;-61
2022/11/15 03:10:29;;;;;;;;;;;;;;;;;;7370328;19;771;-62
2022/11/15 03:13:16;;;;;;;;;;;;;;;;;;7367882;19;1372;-62
2022/11/15 03:16:02;;;;;;;;;;;;;;;;;;7368576;19;1845;-63
2022/11/15 03:18:49;;;;;;;;;;;;;;;;;;7367477;19;1816;-62
2022/11/15 03:21:36;;;;;;;;;;;;;;;;;;7369598;19;1381;-62
2022/11/15 03:24:23;;;;;;;;;;;;;;;;;;7370319;19;747;-62
2022/11/15 03:27:10;;;;;;;;;;;;;;;;;;7369472;19;871;-60
2022/11/15 03:29:56;;;;;;;;;;;;;;;;;;7373690;19;1807;-62
2022/11/15 03:32:43;;;;;;;;;;;;;;;;;;7367442;19;1407;-63
2022/11/15 03:35:30;;;;;;;;;;;;;;;;;;7368528;19;1849;-62
2022/11/15 03:38:17;;;;;;;;;;;;;;;;;;7368863;19;781;-61
2022/11/15 03:41:03;;;;;;;;;;;;;;;;;;7368791;19;1334;-59
2022/11/15 03:43:50;;;;;;;;;;;;;;;;;;7369662;19;701;-60
2022/11/15 03:46:37;;;;;;;;;;;;;;;;;;7369418;19;715;-62
2022/11/15 03:49:24;;;;;;;;;;;;;;;;;;7368731;19;854;-62
2022/11/15 03:52:11;;;;;;;;;;;;;;;;;;7367459;19;1224;-63
2022/11/15 03:54:57;;;;;;;;;;;;;;;;;;7368974;19;1849;-63
2022/11/15 03:57:44;;;;;;;;;;;;;;;;;;7368583;19;1834;-62
2022/11/15 04:00:31;;;;;;;;;;;;;;;;;;7369322;19;772;-62
2022/11/15 04:03:18;;;;;;;;;;;;;;;;;;7369318;19;695;-61
2022/11/15 04:06:05;;;;;;;;;;;;;;;;;;7368976;19;763;-60
2022/11/15 04:08:51;;;;;;;;;;;;;;;;;;7368480;19;774;-62
2022/11/15 04:11:38;;;;;;;;;;;;;;;;;;7370316;19;1525;-63
2022/11/15 04:14:25;;;;;;;;;;;;;;;;;;7368996;19;1101;-61
2022/11/15 04:17:12;;;;;;;;;;;;;;;;;;7368963;19;776;-62
2022/11/15 04:25:56;;;;;;;;;;;;;;;;;;7372324;19;1728;-61
2022/11/15 04:31:42;;;;;;;;;;;;;;;;;;7366577;19;1447;-60
2022/11/15 04:34:29;;;;;;;;;;;;;;;;;;7369875;19;1843;-62
2022/11/15 04:37:15;;;;;;;;;;;;;;;;;;7373111;19;689;-62
2022/11/15 04:40:02;;;;;;;;;;;;;;;;;;7369416;19;751;-59
2022/11/15 04:42:49;;;;;;;;;;;;;;;;;;7367726;19;1354;-62
2022/11/15 04:45:36;;;;;;;;;;;;;;;;;;7370007;19;714;-61
2022/11/15 04:48:22;;;;;;;;;;;;;;;;;;7368119;19;776;-60
2022/11/15 04:51:09;;;;;;;;;;;;;;;;;;7368795;19;1389;-63
2022/11/15 04:53:56;;;;;;;;;;;;;;;;;;7367867;19;781;-63
2022/11/15 04:56:43;;;;;;;;;;;;;;;;;;7368428;19;1848;-63
2022/11/15 04:59:30;;;;;;;;;;;;;;;;;;7368457;19;704;-63
2022/11/15 05:02:17;;;;;;;;;;;;;;;;;;7366665;19;1318;-63
2022/11/15 05:05:01;;;;;;;;;;;;;;;;;;7367557;19;708;-62
2022/11/15 05:07:47;;;;;;;;;;;;;;;;;;7366908;19;762;-63
2022/11/15 05:10:34;;;;;;;;;;;;;;;;;;7367173;19;871;-61
2022/11/15 05:13:21;;;;;;;;;;;;;;;;;;7366975;19;759;-60
2022/11/15 05:16:08;;;;;;;;;;;;;;;;;;7365454;19;1841;-62
2022/11/15 05:18:55;;;;;;;;;;;;;;;;;;7366629;19;722;-60
2022/11/15 05:21:42;;;;;;;;;;;;;;;;;;7368667;19;2056;-63
2022/11/15 05:24:28;;;;;;;;;;;;;;;;;;7367066;19;861;-60
2022/11/15 05:27:15;;;;;;;;;;;;;;;;;;7367295;19;720;-61
2022/11/15 05:30:02;;;;;;;;;;;;;;;;;;7366104;19;781;-62
2022/11/15 05:32:49;;;;;;;;;;;;;;;;;;7364215;19;1353;-60
2022/11/15 05:35:36;;;;;;;;;;;;;;;;;;7366728;19;1840;-62
2022/11/15 05:38:23;;;;;;;;;;;;;;;;;;7365842;19;849;-62
2022/11/15 05:41:09;;;;;;;;;;;;;;;;;;7368020;19;1279;-61
2022/11/15 05:43:56;;;;;;;;;;;;;;;;;;7372917;19;679;-62
2022/11/15 05:46:43;;;;;;;;;;;;;;;;;;7372032;19;788;-63
2022/11/15 05:49:30;;;;;;;;;;;;;;;;;;7373769;19;2046;-63
2022/11/15 05:52:17;;;;;;;;;;;;;;;;;;7370685;19;1331;-63
2022/11/15 05:55:04;;;;;;;;;;;;;;;;;;7372821;19;770;-63
2022/11/15 05:57:50;;;;;;;;;;;;;;;;;;7371700;19;837;-62
2022/11/15 06:00:37;;;;;;;;;;;;;;;;;;7372630;19;763;-62
2022/11/15 06:03:24;;;;;;;;;;;;;;;;;;7372169;19;874;-62
2022/11/15 06:06:11;;;;;;;;;;;;;;;;;;7372295;19;724;-63
2022/11/15 06:08:57;;;;;;;;;;;;;;;;;;7371036;19;722;-63
2022/11/15 06:11:44;;;;;;;;;;;;;;;;;;7375442;19;1334;-62
2022/11/15 06:14:31;;;;;;;;;;;;;;;;;;7371668;19;787;-63
2022/11/15 06:17:18;;;;;;;;;;;;;;;;;;7369941;19;1850;-62
2022/11/15 06:20:05;;;;;;;;;;;;;;;;;;7374962;19;1867;-61
2022/11/15 06:22:52;;;;;;;;;;;;;;;;;;7369747;19;1380;-62
2022/11/15 06:25:38;;;;;;;;;;;;;;;;;;7371896;19;722;-63
2022/11/15 06:28:25;;;;;;;;;;;;;;;;;;7370719;19;801;-63
2022/11/15 06:31:12;;;;;;;;;;;;;;;;;;7371283;19;1334;-62
2022/11/15 06:33:59;;;;;;;;;;;;;;;;;;7371172;19;756;-64
2022/11/15 06:36:46;;;;;;;;;;;;;;;;;;7368987;19;1861;-63
2022/11/15 06:39:32;;;;;;;;;;;;;;;;;;7370354;19;711;-63
2022/11/15 06:42:19;;;;;;;;;;;;;;;;;;7369244;19;1280;-64
2022/11/15 06:45:06;;;;;;;;;;;;;;;;;;7370309;19;911;-64
2022/11/15 06:47:53;;;;;;;;;;;;;;;;;;7372341;19;1810;-63
2022/11/15 06:50:39;;;;;;;;;;;;;;;;;;7370990;19;783;-62
2022/11/15 06:53:26;;;;;;;;;;;;;;;;;;7369646;19;772;-64
2022/11/15 06:56:13;;;;;;;;;;;;;;;;;;7370159;19;1865;-61
2022/11/15 06:59:00;;;;;;;;;;;;;;;;;;7370539;19;689;-64
2022/11/15 07:01:47;;;;;;;;;;;;;;;;;;7369247;19;1279;-65
2022/11/15 07:04:34;;;;;;;;;;;;;;;;;;7370885;19;810;-64
2022/11/15 07:07:21;;;;;;;;;;;;;;;;;;7370277;19;732;-63
2022/11/15 07:10:08;;;;;;;;;;;;;;;;;;7371192;19;1822;-63
2022/11/15 07:12:55;;;;;;;;;;;;;;;;;;7368886;19;1387;-64
2022/11/15 07:15:41;;;;;;;;;;;;;;;;;;7371164;19;1849;-63
2022/11/15 07:18:29;;;;;;;;;;;;;;;;;;7373729;19;1752;-60
2022/11/15 07:21:16;;;;;;;;;;;;;;;;;;7370265;19;1350;-60
2022/11/15 07:24:03;;;;;;;;;;;;;;;;;;7370857;19;847;-61
2022/11/15 07:26:50;;;;;;;;;;;;;;;;;;7369205;19;855;-61
2022/11/15 07:29:37;;;;;;;;;;;;;;;;;;7369051;19;838;-60
2022/11/15 07:32:24;;;;;;;;;;;;;;;;;;7367457;19;1259;-61
2022/11/15 07:35:11;;;;;;;;;;;;;;;;;;7369140;19;854;-61
2022/11/15 07:37:57;;;;;;;;;;;;;;;;;;7365675;19;1841;-60
2022/11/15 07:40:44;;;;;;;;;;;;;;;;;;7369025;19;763;-60
2022/11/15 07:43:33;;;;;;;;;;;;;;;;;;7369861;19;706;-63
2022/11/15 07:46:20;;;;;;;;;;;;;;;;;;7372779;19;1850;-61
2022/11/15 07:49:07;;;;;;;;;;;;;;;;;;7368733;19;733;-61
2022/11/15 07:51:53;;;;;;;;;;;;;;;;;;7367958;19;1326;-61
2022/11/15 07:54:40;;;;;;;;;;;;;;;;;;7368891;19;869;-62
2022/11/15 07:57:27;;;;;;;;;;;;;;;;;;7366667;19;1853;-62
2022/11/15 08:00:14;;;;;;;;;;;;;;;;;;7368771;19;730;-59
2022/11/15 08:03:01;;;;;;;;;;;;;;;;;;7367269;19;1877;-62
2022/11/15 08:05:48;;;;;;;;;;;;;;;;;;7368795;19;707;-62
2022/11/15 08:08:34;;;;;;;;;;;;;;;;;;7368048;19;847;-61
2022/11/15 08:11:21;;;;;;;;;;;;;;;;;;7368500;19;1334;-62
2022/11/15 08:14:07;;;;;;;;;;;;;;;;;;7368766;19;793;-62
2022/11/15 08:16:54;;;;;;;;;;;;;;;;;;7372365;19;1857;-62
2022/11/15 08:19:41;;;;;;;;;;;;;;;;;;7370810;19;1827;-62
2022/11/15 08:22:28;;;;;;;;;;;;;;;;;;7366953;19;1318;-62
2022/11/15 08:25:15;;;;;;;;;;;;;;;;;;7368661;19;1598;-62
2022/11/15 08:28:02;;;;;;;;;;;;;;;;;;7367821;19;764;-62
2022/11/15 08:30:49;;;;;;;;;;;;;;;;;;7368542;19;799;-62
2022/11/15 08:33:36;;;;;;;;;;;;;;;;;;7368567;19;789;-60
2022/11/15 08:36:23;;;;;;;;;;;;;;;;;;7367299;19;1834;-62
2022/11/15 08:39:09;;;;;;;;;;;;;;;;;;7367047;19;771;-60
2022/11/15 08:41:56;;;;;;;;;;;;;;;;;;7366741;19;1377;-62
2022/11/15 08:44:43;;;;;;;;;;;;;;;;;;7373717;19;1433;-62
2022/11/15 08:47:30;;;;;;;;;;;;;;;;;;7367865;19;707;-60
2022/11/15 08:50:17;;;;;;;;;;;;;;;;;;7367900;19;770;-62
2022/11/15 08:53:04;;;;;;;;;;;;;;;;;;7364925;19;1360;-62
2022/11/15 08:55:50;;;;;;;;;;;;;;;;;;7369775;19;1826;-62
2022/11/15 08:58:37;;;;;;;;;;;;;;;;;;7366833;19;768;-61
2022/11/15 09:01:24;;;;;;;;;;;;;;;;;;7366998;19;1338;-62
2022/11/15 09:04:11;;;;;;;;;;;;;;;;;;7366711;19;791;-63
2022/11/15 09:06:58;;;;;;;;;;;;;;;;;;7367417;19;756;-62
2022/11/15 09:09:45;;;;;;;;;;;;;;;;;;7366677;19;860;-62
2022/11/15 09:12:31;;;;;;;;;;;;;;;;;;7365419;19;1841;-62
2022/11/15 09:15:19;;;;;;;;;;;;;;;;;;7367496;19;791;-61
2022/11/15 09:18:06;;;;;;;;;;;;;;;;;;7361897;19;1852;-62
2022/11/15 09:20:52;;;;;;;;;;;;;;;;;;7369059;19;1801;-60
2022/11/15 09:23:39;;;;;;;;;;;;;;;;;;7370247;19;1156;-63
2022/11/15 09:26:26;;;;;;;;;;;;;;;;;;7369451;19;699;-62
2022/11/15 09:29:12;;;;;;;;;;;;;;;;;;7366580;19;858;-63
2022/11/15 09:31:59;;;;;;;;;;;;;;;;;;7366034;19;1462;-62
2022/11/15 09:34:46;;;;;;;;;;;;;;;;;;7367219;19;713;-64
2022/11/15 09:37:33;;;;;;;;;;;;;;;;;;7365241;19;1837;-62
2022/11/15 09:40:20;;;;;;;;;;;;;;;;;;7366994;19;1766;-64
2022/11/15 09:43:06;;;;;;;;;;;;;;;;;;7364318;19;1353;-63
2022/11/15 09:45:53;;;;;;;;;;;;;;;;;;7366793;19;713;-63
2022/11/15 09:48:44;;;;;;;;;;;;;;;;;;7365626;19;1032;-63
2022/11/15 09:51:35;;;;;;;;;;;;;;;;;;7364750;19;1385;-60
2022/11/15 09:54:03;;;;;;;;;;;;;;;;;;7365592;19;827;-62
2022/11/15 09:56:31;;;;;;;;;;;;;;;;;;7364155;19;1832;-61
2022/11/15 09:58:59;;;;;;;;;;;;;;;;;;7365153;19;994;-61
2022/11/15 10:01:27;;;;;;;;;;;;;;;;;;7367527;19;2002;-61
2022/11/15 10:03:55;;;;;;;;;;;;;;;;;;7365232;19;807;-61
2022/11/15 10:06:23;;;;;;;;;;;;;;;;;;7364814;19;819;-63
2022/11/15 10:08:51;;;;;;;;;;;;;;;;;;7367230;19;1849;-60
2022/11/15 10:11:20;;;;;;;;;;;;;;;;;;7363687;19;1279;-61
2022/11/15 10:13:48;;;;;;;;;;;;;;;;;;7364548;19;838;-59
2022/11/15 10:16:16;;;;;;;;;;;;;;;;;;7364954;19;843;-62
2022/11/15 10:18:44;;;;;;;;;;;;;;;;;;7360713;19;1845;-62
2022/11/15 10:21:12;;;;;;;;;;;;;;;;;;7367056;19;1402;-61
2022/11/15 10:23:41;;;;;;;;;;;;;;;;;;7363933;19;826;-62
2022/11/15 10:26:09;;;;;;;;;;;;;;;;;;7364453;19;1031;-61
2022/11/15 10:28:37;;;;;;;;;;;;;;;;;;7369452;19;799;-60
2022/11/15 10:31:05;;;;;;;;;;;;;;;;;;7370858;19;1283;-62
2022/11/15 10:33:33;;;;;;;;;;;;;;;;;;7370692;19;878;-61
2022/11/15 10:36:03;;;;;;;;;;;;;;;;;;7372419;19;1790;-61
2022/11/15 10:38:31;;;;;;;;;;;;;;;;;;7367388;19;1842;-60
2022/11/15 10:40:59;;;;;;;;;;;;;;;;;;7370364;19;1283;-59
2022/11/15 10:43:28;;;;;;;;;;;;;;;;;;7371703;19;821;-60
2022/11/15 10:45:56;;;;;;;;;;;;;;;;;;7370378;19;855;-60
2022/11/15 10:48:24;;;;;;;;;;;;;;;;;;7370562;19;846;-61
2022/11/15 10:50:53;;;;;;;;;;;;;;;;;;7370954;19;799;-60
2022/11/15 10:53:21;;;;;;;;;;;;;;;;;;7370848;19;838;-58
2022/11/15 10:55:49;;;;;;;;;;;;;;;;;;7371919;19;800;-63
2022/11/15 10:58:17;;;;;;;;;;;;;;;;;;7369624;19;1846;-61
2022/11/15 11:00:45;;;;;;;;;;;;;;;;;;7371430;19;815;-61
2022/11/15 11:03:13;;;;;;;;;;;;;;;;;;7368785;19;1743;-59
2022/11/15 11:05:42;;;;;;;;;;;;;;;;;;7374531;19;2005;-60
2022/11/15 11:08:10;;;;;;;;;;;;;;;;;;7370286;19;795;-62
2022/11/15 11:10:38;;;;;;;;;;;;;;;;;;7370793;19;819;-63
2022/11/15 11:13:06;;;;;;;;;;;;;;;;;;7368936;19;1278;-62
2022/11/15 11:15:34;;;;;;;;;;;;;;;;;;7374853;19;1808;-62
2022/11/15 11:18:02;;;;;;;;;;;;;;;;;;7371757;19;1866;-63
2022/11/15 11:20:30;;;;;;;;;;;;;;;;;;7370819;19;1991;-61
2022/11/15 11:22:59;;;;;;;;;;;;;;;;;;7367576;19;1321;-63
2022/11/15 11:25:27;;;;;;;;;;;;;;;;;;7370479;19;764;-62
2022/11/15 11:27:55;;;;;;;;;;;;;;;;;;7370320;19;781;-62
2022/11/15 11:30:23;;;;;;;;;;;;;;;;;;7369930;19;879;-61
2022/11/15 11:32:51;;;;;;;;;;;;;;;;;;7371799;19;1865;-62
2022/11/15 11:35:19;;;;;;;;;;;;;;;;;;7372080;19;782;-62
2022/11/15 11:37:47;;;;;;;;;;;;;;;;;;7373113;19;1813;-61
2022/11/15 11:40:15;;;;;;;;;;;;;;;;;;7371587;19;832;-61
2022/11/15 11:42:44;;;;;;;;;;;;;;;;;;7372360;19;1624;-62
2022/11/15 11:45:12;;;;;;;;;;;;;;;;;;7372786;19;785;-61
2022/11/15 11:47:40;;;;;;;;;;;;;;;;;;7376337;19;755;-60
2022/11/15 11:50:08;;;;;;;;;;;;;;;;;;7372539;19;840;-60
2022/11/15 11:52:36;;;;;;;;;;;;;;;;;;7369751;19;1266;-60
2022/11/15 11:55:04;;;;;;;;;;;;;;;;;;7372628;19;818;-61
2022/11/15 11:57:32;;;;;;;;;;;;;;;;;;7375598;19;1875;-58
2022/11/15 12:00:01;;;;;;;;;;;;;;;;;;7371677;19;1680;-62
2022/11/15 12:02:29;;;;;;;;;;;;;;;;;;7367516;19;1266;-59
2022/11/15 12:05:00;;;;;;;;;;;;;;;;;;7367068;19;1041;-59
2022/11/15 12:07:28;;;;;;;;;;;;;;;;;;7369627;19;839;-61
2022/11/15 12:09:56;;;;;;;;;;;;;;;;;;7367998;19;799;-61
2022/11/15 12:12:24;;;;;;;;;;;;;;;;;;7368201;19;1393;-61
2022/11/15 12:14:52;;;;;;;;;;;;;;;;;;7368953;19;762;-61
2022/11/15 12:17:20;;;;;;;;;;;;;;;;;;7369686;19;1875;-60
2022/11/15 12:19:48;;;;;;;;;;;;;;;;;;7367672;19;812;-57
2022/11/15 12:22:17;;;;;;;;;;;;;;;;;;7366557;19;1314;-59
2022/11/15 12:24:45;;;;;;;;;;;;;;;;;;7368421;19;818;-58
2022/11/15 12:27:13;;;;;;;;;;;;;;;;;;7367406;19;795;-60
2022/11/15 12:29:41;;;;;;;;;;;;;;;;;;7367222;19;796;-59
2022/11/15 12:32:09;;;;;;;;;;;;;;;;;;7366747;19;1270;-60
2022/11/15 12:34:37;;;;;;;;;;;;;;;;;;7368641;19;816;-59
2022/11/15 12:37:05;;;;;;;;;;;;;;;;;;7369795;19;1143;-59
2022/11/15 12:39:34;;;;;;;;;;;;;;;;;;7367306;19;815;-60
2022/11/15 12:42:02;;;;;;;;;;;;;;;;;;7365824;19;1336;-60
2022/11/15 12:44:30;;;;;;;;;;;;;;;;;;7367126;19;805;-60
2022/11/15 12:46:58;;;;;;;;;;;;;;;;;;7367977;19;784;-61
2022/11/15 12:49:26;;;;;;;;;;;;;;;;;;7366696;19;839;-58
2022/11/15 12:51:54;;;;;;;;;;;;;;;;;;7368367;19;1829;-60
2022/11/15 12:54:22;;;;;;;;;;;;;;;;;;7367444;19;868;-63
2022/11/15 12:56:51;;;;;;;;;;;;;;;;;;7370544;19;2012;-60
2022/11/15 12:59:19;;;;;;;;;;;;;;;;;;7365895;19;1857;-60
2022/11/15 13:01:47;;;;;;;;;;;;;;;;;;7365650;19;1282;-60
2022/11/15 13:04:15;;;;;;;;;;;;;;;;;;7368246;19;1071;-59
2022/11/15 13:06:43;;;;;;;;;;;;;;;;;;7365729;19;898;-60
2022/11/15 13:09:12;;;;;;;;;;;;;;;;;;7366896;19;753;-61
2022/11/15 13:11:40;;;;;;;;;;;;;;;;;;7366713;19;1271;-61
2022/11/15 13:14:08;;;;;;;;;;;;;;;;;;7367138;19;788;-60
2022/11/15 13:16:36;;;;;;;;;;;;;;;;;;7368014;19;907;-61
2022/11/15 13:19:04;;;;;;;;;;;;;;;;;;7365396;19;1818;-60
2022/11/15 13:24:13;;;;;;;;;;;;;;;;;;7368831;19;2174;-60
2022/11/15 13:26:41;;;;;;;;;;;;;;;;;;7369049;19;1817;-56
2022/11/15 13:29:09;;;;;;;;;;;;;;;;;;7366626;19;806;-58
2022/11/15 13:31:38;;;;;;;;;;;;;;;;;;7369340;19;1873;-61
2022/11/15 13:34:06;;;;;;;;;;;;;;;;;;7370700;19;1772;-60
2022/11/15 13:36:35;;;;;;;;;;;;;;;;;;7365752;19;863;-59
2022/11/15 13:39:03;;;;;;;;;;;;;;;;;;7363493;19;1845;-60
2022/11/15 13:41:31;;;;;;;;;;;;;;;;;;7365673;19;1305;-58
2022/11/15 13:44:00;;;;;;;;;;;;;;;;;;7366017;19;1615;-59
2022/11/15 13:46:28;;;;;;;;;;;;;;;;;;7366960;19;803;-63
2022/11/15 13:48:56;;;;;;;;;;;;;;;;;;7365246;19;791;-60
2022/11/15 13:51:24;;;;;;;;;;;;;;;;;;7364968;19;1212;-61
2022/11/15 13:53:52;;;;;;;;;;;;;;;;;;7366000;19;859;-61
2022/11/15 13:56:21;;;;;;;;;;;;;;;;;;7365393;19;803;-59
2022/11/15 13:58:49;;;;;;;;;;;;;;;;;;7363856;19;1846;-59
2022/11/15 14:01:19;;;;;;;;;;;;;;;;;;7364989;19;1365;-60
2022/11/15 14:03:47;;;;;;;;;;;;;;;;;;7371287;19;868;-59
2022/11/15 14:06:15;;;;;;;;;;;;;;;;;;7373261;19;1590;-60
2022/11/15 14:08:43;;;;;;;;;;;;;;;;;;7375548;19;1778;-60
2022/11/15 14:11:12;;;;;;;;;;;;;;;;;;7371261;19;1239;-60
2022/11/15 14:13:40;;;;;;;;;;;;;;;;;;7371672;19;834;-59
2022/11/15 14:16:09;;;;;;;;;;;;;;;;;;7370222;19;841;-60
2022/11/15 14:18:37;;;;;;;;;;;;;;;;;;7369648;19;1825;-60
2022/11/15 14:21:05;;;;;;;;;;;;;;;;;;7371151;19;1299;-60
2022/11/15 14:23:33;;;;;;;;;;;;;;;;;;7371068;19;835;-56
2022/11/15 14:26:01;;;;;;;;;;;;;;;;;;7374649;19;1687;-61
2022/11/15 14:28:29;;;;;;;;;;;;;;;;;;7370856;19;844;-59
2022/11/15 14:30:57;;;;;;;;;;;;;;;;;;7375218;19;1761;-61
2022/11/15 14:33:26;;;;;;;;;;;;;;;;;;7374435;19;1430;-62
2022/11/15 14:35:55;;;;;;;;;;;;;;;;;;7375830;19;949;-59
2022/11/15 14:38:23;;;;;;;;;;;;;;;;;;7370329;19;1862;-62
2022/11/15 14:40:53;;;;;;;;;;;;;;;;;;7374081;19;1795;-61
2022/11/15 14:43:21;;;;;;;;;;;;;;;;;;7368733;19;1818;-60
2022/11/15 14:45:49;;;;;;;;;;;;;;;;;;7373991;19;1703;-58
2022/11/15 14:48:17;;;;;;;;;;;;;;;;;;7371675;19;1829;-61
2022/11/15 14:50:46;;;;;;;;;;;;;;;;;;7371586;19;806;-61
2022/11/15 14:53:14;;;;;;;;;;;;;;;;;;7369388;19;1287;-60
2022/11/15 14:55:42;;;;;;;;;;;;;;;;;;7370882;19;863;-60
2022/11/15 14:58:10;;;;;;;;;;;;;;;;;;7369833;19;1851;-60
2022/11/15 15:00:38;;;;;;;;;;;;;;;;;;7372144;19;1601;-59
2022/11/15 15:03:06;;;;;;;;;;;;;;;;;;7368668;19;1291;-60
2022/11/15 15:05:34;;;;;;;;;;;;;;;;;;7370787;19;831;-59
2022/11/15 15:08:03;;;;;;;;;;;;;;;;;;7371617;19;2027;-61
2022/11/15 15:10:31;;;;;;;;;;;;;;;;;;7369728;19;878;-61
2022/11/15 15:12:59;;;;;;;;;;;;;;;;;;7369512;19;1852;-62
2022/11/15 15:15:27;;;;;;;;;;;;;;;;;;7372103;19;1197;-62
2022/11/15 15:17:55;;;;;;;;;;;;;;;;;;7372731;19;1861;-57
2022/11/15 15:20:23;;;;;;;;;;;;;;;;;;7371348;19;728;-59
2022/11/15 15:22:51;;;;;;;;;;;;;;;;;;7368901;19;1275;-60
2022/11/15 15:25:20;;;;;;;;;;;;;;;;;;7372460;19;980;-62
2022/11/15 15:27:48;;;;;;;;;;;;;;;;;;7373942;19;811;-62
2022/11/15 15:30:16;;;;;;;;;;;;;;;;;;7369612;19;862;-62
2022/11/15 15:32:44;;;;;;;;;;;;;;;;;;7367132;19;1336;-62
2022/11/15 15:35:12;;;;;;;;;;;;;;;;;;7369967;19;822;-61
2022/11/15 15:37:40;;;;;;;;;;;;;;;;;;7369052;19;851;-61
2022/11/15 15:40:08;;;;;;;;;;;;;;;;;;7369460;19;2059;-62
2022/11/15 15:42:37;;;;;;;;;;;;;;;;;;7367128;19;1338;-61
2022/11/15 15:45:05;;;;;;;;;;;;;;;;;;7372476;19;1232;-61
2022/11/15 15:47:33;;;;;;;;;;;;;;;;;;7369878;19;2134;-60
2022/11/15 15:50:01;;;;;;;;;;;;;;;;;;7368860;19;814;-62
2022/11/15 15:52:29;;;;;;;;;;;;;;;;;;7366959;19;1362;-62
2022/11/15 15:54:57;;;;;;;;;;;;;;;;;;7368417;19;886;-63
2022/11/15 15:57:25;;;;;;;;;;;;;;;;;;7366728;19;861;-60
2022/11/15 15:59:54;;;;;;;;;;;;;;;;;;7367388;19;1849;-61
2022/11/15 16:02:22;;;;;;;;;;;;;;;;;;7366793;19;1346;-60
2022/11/15 16:04:50;;;;;;;;;;;;;;;;;;7371001;19;1807;-62
2022/11/15 16:07:18;;;;;;;;;;;;;;;;;;7368058;19;767;-60
2022/11/15 16:12:27;;;;;;;;;;;;;;;;;;7366374;19;1314;-60
2022/11/15 16:14:55;;;;;;;;;;;;;;;;;;7368678;19;834;-60
2022/11/15 16:17:23;;;;;;;;;;;;;;;;;;7367874;19;822;-59
2022/11/15 16:19:51;;;;;;;;;;;;;;;;;;7366030;19;1835;-57
2022/11/15 16:22:19;;;;;;;;;;;;;;;;;;7367758;19;2035;-60
2022/11/15 16:24:48;;;;;;;;;;;;;;;;;;7368534;19;1791;-58
2022/11/15 16:27:16;;;;;;;;;;;;;;;;;;7368325;19;768;-59
2022/11/15 16:29:44;;;;;;;;;;;;;;;;;;7367822;19;763;-58
2022/11/15 16:32:12;;;;;;;;;;;;;;;;;;7369059;19;1881;-61
2022/11/15 16:34:40;;;;;;;;;;;;;;;;;;7367761;19;905;-60
2022/11/15 16:37:08;;;;;;;;;;;;;;;;;;7368204;19;855;-59
2022/11/15 16:39:36;;;;;;;;;;;;;;;;;;7365266;19;1850;-59
2022/11/15 16:42:04;;;;;;;;;;;;;;;;;;7366180;19;1336;-63
2022/11/15 16:44:33;;;;;;;;;;;;;;;;;;7369817;19;1016;-60
2022/11/15 16:47:01;;;;;;;;;;;;;;;;;;7367314;19;829;-59
2022/11/15 16:49:29;;;;;;;;;;;;;;;;;;7369243;19;2055;-62
2022/11/15 16:51:57;;;;;;;;;;;;;;;;;;7365240;19;1326;-58
2022/11/15 16:54:25;;;;;;;;;;;;;;;;;;7368209;19;868;-62
2022/11/15 16:56:54;;;;;;;;;;;;;;;;;;7367287;19;846;-59
2022/11/15 16:59:22;;;;;;;;;;;;;;;;;;7369516;19;1990;-57
2022/11/15 17:01:52;;;;;;;;;;;;;;;;;;7365062;19;1286;-57
2022/11/15 17:04:21;;;;;;;;;;;;;;;;;;7369867;19;2023;-60
2022/11/15 17:06:49;;;;;;;;;;;;;;;;;;7367360;19;833;-59
2022/11/15 17:09:17;;;;;;;;;;;;;;;;;;7366231;19;783;-61
2022/11/15 17:11:45;;;;;;;;;;;;;;;;;;7365487;19;1340;-60
2022/11/15 17:14:14;;;;;;;;;;;;;;;;;;7365864;19;861;-60
2022/11/15 17:16:43;;;;;;;;;;;;;;;;;;7366193;19;850;-56
2022/11/15 17:19:11;;;;;;;;;;;;;;;;;;7368315;19;2000;-60
2022/11/15 17:21:39;;;;;;;;;;;;;;;;;;7365454;19;1338;-61
2022/11/15 17:24:07;;;;;;;;;;;;;;;;;;7364940;19;856;-60
2022/11/15 17:26:35;;;;;;;;;;;;;;;;;;7368842;19;1827;-63
2022/11/15 17:29:06;;;;;;;;;;;;;;;;;;7366273;19;828;-63
2022/11/15 17:31:34;;;;;;;;;;;;;;;;;;7366303;19;1323;-60
2022/11/15 17:34:02;;;;;;;;;;;;;;;;;;7366363;19;2067;-61
2022/11/15 17:36:31;;;;;;;;;;;;;;;;;;7366371;19;2008;-62
2022/11/15 17:38:59;;;;;;;;;;;;;;;;;;7366648;19;1853;-62
2022/11/15 17:41:27;;;;;;;;;;;;;;;;;;7368687;19;1824;-62
2022/11/15 17:43:56;;;;;;;;;;;;;;;;;;7369495;19;1756;-61
2022/11/15 17:46:24;;;;;;;;;;;;;;;;;;7366657;19;845;-62
2022/11/15 17:48:52;;;;;;;;;;;;;;;;;;7364921;19;812;-63
2022/11/15 17:51:21;;;;;;;;;;;;;;;;;;7364772;19;1380;-62
2022/11/15 17:53:50;;;;;;;;;;;;;;;;;;7365777;19;910;-61
2022/11/15 17:56:18;;;;;;;;;;;;;;;;;;7365334;19;819;-60
2022/11/15 17:58:46;;;;;;;;;;;;;;;;;;7365045;19;1834;-61
2022/11/15 18:01:14;;;;;;;;;;;;;;;;;;7365472;19;1345;-60
2022/11/15 18:03:42;;;;;;;;;;;;;;;;;;7365070;19;870;-61
2022/11/15 18:06:10;;;;;;;;;;;;;;;;;;7364776;19;794;-61
2022/11/15 18:08:39;;;;;;;;;;;;;;;;;;7364392;19;951;-59
2022/11/15 18:11:07;;;;;;;;;;;;;;;;;;7365247;19;2005;-63
2022/11/15 18:13:35;;;;;;;;;;;;;;;;;;7365252;19;784;-58
2022/11/15 18:16:04;;;;;;;;;;;;;;;;;;7364663;19;899;-63
2022/11/15 18:18:32;;;;;;;;;;;;;;;;;;7364236;19;1796;-63
2022/11/15 18:21:00;;;;;;;;;;;;;;;;;;7365972;19;2043;-63
2022/11/15 18:23:28;;;;;;;;;;;;;;;;;;7367102;19;859;-58
2022/11/15 18:25:56;;;;;;;;;;;;;;;;;;7366611;19;870;-59
2022/11/15 18:28:24;;;;;;;;;;;;;;;;;;7369170;19;1816;-63
2022/11/15 18:30:52;;;;;;;;;;;;;;;;;;7369846;19;819;-64
2022/11/15 18:33:20;;;;;;;;;;;;;;;;;;7368242;19;1521;-63
2022/11/15 18:35:49;;;;;;;;;;;;;;;;;;7374416;19;1466;-64
2022/11/15 18:38:17;;;;;;;;;;;;;;;;;;7364518;19;1838;-65